Time;durP1;ratioP1;P1;durP2;ratioP2;P2;SDS_P1;SDS_P2;PMS_P1;PMS_P2;Temp;Humidity;BMP_temperature;BMP_pressure;BME280_temperature;BME280_humidity;BME280_pressure;Samples;Min_cycle;Max_cycle;Signal;HPM_P1;HPM_P2
2022/08/17 00:01:20;;;;;;;;;;;;;;;18.16;69.44;100061.88;5108581;28;19962;-68
2022/08/17 00:04:23;;;;;;;;;;;;;;;18.18;69.25;100061.72;5106028;28;19923;-68
2022/08/17 00:07:26;;;;;;;;;;;;;;;18.15;69.01;100054.91;5092897;28;19918;-68
2022/08/17 00:10:29;;;;;;;;;;;;;;;18.16;68.91;100059.22;5109317;28;19919;-69
2022/08/17 00:13:35;;;;;;;;;;;;;;;18.08;69.44;100064.38;5108997;28;20349;-68
2022/08/17 00:16:40;;;;;;;;;;;;;;;18.11;70.25;100062.28;5096946;28;20433;-69
2022/08/17 00:19:43;;;;;;;;;;;;;;;18.19;70.38;100058.94;5109565;28;20281;-68
2022/08/17 00:22:46;;;;;;;;;;;;;;;18.16;70.34;100053.94;5108376;28;19969;-68
2022/08/17 00:25:50;;;;;;;;;;;;;;;18.02;70.89;100046.41;5108730;28;19988;-69
2022/08/17 00:28:54;;;;;;;;;;;;;;;18.00;71.00;100051.03;5108876;28;19919;-69
2022/08/17 00:31:57;;;;;;;;;;;;;;;17.94;71.10;100048.94;5108984;28;19965;-68
2022/08/17 00:35:03;;;;;;;;;;;;;;;17.94;71.08;100048.94;5109479;28;20040;-68
2022/08/17 00:38:08;;;;;;;;;;;;;;;17.91;71.13;100046.56;5088842;28;20391;-69
2022/08/17 00:41:16;;;;;;;;;;;;;;;17.79;70.90;100046.69;5088363;28;20388;-68
2022/08/17 00:44:19;;;;;;;;;;;;;;;17.78;71.43;100055.59;5089504;28;20253;-68
2022/08/17 00:47:22;;;;;;;;;;;;;;;17.84;71.54;100049.75;5087692;28;19969;-68
2022/08/17 00:50:25;;;;;;;;;;;;;;;17.80;71.49;100050.16;5092557;28;20383;-70
2022/08/17 00:53:30;;;;;;;;;;;;;;;17.66;71.99;100040.81;5108446;28;19919;-70
2022/08/17 00:56:36;;;;;;;;;;;;;;;17.52;72.57;100043.84;5109588;28;19919;-68
2022/08/17 00:59:48;;;;;;;;;;;;;;;17.52;72.20;100038.56;5108555;28;19960;-68
2022/08/17 01:02:56;;;;;;;;;;;;;;;17.49;72.01;100047.59;5108617;28;19937;-68
2022/08/17 01:06:01;;;;;;;;;;;;;;;17.61;71.51;100043.00;5107845;28;19923;-68
2022/08/17 01:09:05;;;;;;;;;;;;;;;17.66;71.49;100040.81;5108763;28;19965;-68
2022/08/17 01:12:10;;;;;;;;;;;;;;;17.53;72.21;100030.50;5107808;28;20205;-68
2022/08/17 01:15:13;;;;;;;;;;;;;;;17.54;71.88;100034.78;5107285;28;19946;-69
2022/08/17 01:18:16;;;;;;;;;;;;;;;17.57;71.54;100041.63;5107652;28;20335;-69
2022/08/17 01:21:22;;;;;;;;;;;;;;;17.48;72.10;100047.72;5107854;28;19919;-70
2022/08/17 01:24:25;;;;;;;;;;;;;;;17.36;72.34;100042.56;5109854;28;19922;-69
2022/08/17 01:27:28;;;;;;;;;;;;;;;17.38;72.18;100034.50;5112150;28;19918;-68
2022/08/17 01:30:31;;;;;;;;;;;;;;;17.24;72.62;100038.34;5111942;28;20352;-68
2022/08/17 01:33:35;;;;;;;;;;;;;;;17.25;72.44;100028.63;5111165;28;19918;-68
2022/08/17 01:36:40;;;;;;;;;;;;;;;17.26;72.74;100041.72;5111399;28;19956;-69
2022/08/17 01:39:48;;;;;;;;;;;;;;;17.30;72.73;100045.75;5111637;28;19918;-69
2022/08/17 01:42:57;;;;;;;;;;;;;;;17.26;73.25;100048.78;5111154;28;19922;-69
2022/08/17 01:46:01;;;;;;;;;;;;;;;17.15;73.20;100050.56;5098477;28;20003;-69
2022/08/17 01:49:05;;;;;;;;;;;;;;;17.20;72.72;100045.72;5110544;28;20337;-69
2022/08/17 01:52:09;;;;;;;;;;;;;;;17.30;72.53;100044.91;5112152;28;20296;-69
2022/08/17 01:55:14;;;;;;;;;;;;;;;17.30;72.69;100053.69;5112160;28;19922;-69
2022/08/17 01:58:18;;;;;;;;;;;;;;;17.29;72.71;100051.97;5112089;28;19923;-69
2022/08/17 02:01:22;;;;;;;;;;;;;;;17.20;73.23;100051.00;5110844;28;19919;-69
2022/08/17 02:04:26;;;;;;;;;;;;;;;17.22;73.01;100047.38;5111309;28;19981;-69
2022/08/17 02:07:29;;;;;;;;;;;;;;;17.07;73.81;100049.53;5111570;28;20036;-68
2022/08/17 02:10:33;;;;;;;;;;;;;;;17.02;74.39;100059.69;5111129;28;19918;-69
2022/08/17 02:13:36;;;;;;;;;;;;;;;17.32;73.02;100059.63;5111737;28;20335;-69
2022/08/17 02:16:40;;;;;;;;;;;;;;;17.31;72.79;100063.25;5111235;28;19965;-69
2022/08/17 02:19:43;;;;;;;;;;;;;;;17.19;73.18;100061.69;5111118;28;19919;-69
2022/08/17 02:22:46;;;;;;;;;;;;;;;17.11;73.83;100061.53;5110958;28;19918;-69
2022/08/17 02:25:49;;;;;;;;;;;;;;;17.06;73.98;100058.44;5110963;28;19960;-69
2022/08/17 02:28:53;;;;;;;;;;;;;;;17.33;73.28;100061.34;5110198;28;20028;-69
2022/08/17 02:31:57;;;;;;;;;;;;;;;17.22;73.67;100058.78;5110757;28;19922;-69
2022/08/17 02:35:00;;;;;;;;;;;;;;;17.17;73.97;100053.91;5110572;28;19970;-69
2022/08/17 02:38:04;;;;;;;;;;;;;;;17.12;74.13;100052.63;5110861;28;20375;-69
2022/08/17 02:41:08;;;;;;;;;;;;;;;17.05;74.32;100046.22;5110399;28;20391;-69
2022/08/17 02:44:11;;;;;;;;;;;;;;;17.00;74.54;100053.69;5110310;28;19965;-69
2022/08/17 02:47:14;;;;;;;;;;;;;;;17.06;74.40;100055.81;4756821;28;10000491;-69
2022/08/17 02:50:18;;;;;;;;;;;;;;;17.16;74.14;100051.38;5087532;28;20379;-69
2022/08/17 02:53:23;;;;;;;;;;;;;;;17.14;74.22;100048.91;5095258;28;19929;-69
2022/08/17 02:56:26;;;;;;;;;;;;;;;17.05;74.59;100051.50;5104404;28;20289;-69
2022/08/17 02:59:29;;;;;;;;;;;;;;;17.05;74.50;100046.22;5105497;28;19923;-69
2022/08/17 03:02:36;;;;;;;;;;;;;;;17.01;74.92;100048.31;5106336;28;19962;-69
2022/08/17 03:05:40;;;;;;;;;;;;;;;17.05;74.62;100057.63;5106671;28;19969;-68
2022/08/17 03:08:43;;;;;;;;;;;;;;;17.04;74.52;100053.31;5107091;28;20406;-68
2022/08/17 03:11:46;;;;;;;;;;;;;;;17.00;74.85;100048.41;5107437;27;20066;-68
2022/08/17 03:14:49;;;;;;;;;;;;;;;16.92;75.43;100044.63;5106278;28;20428;-68
2022/08/17 03:17:53;;;;;;;;;;;;;;;16.99;75.16;100047.59;5106185;28;19922;-68
2022/08/17 03:20:58;;;;;;;;;;;;;;;17.02;75.13;100049.97;5106373;28;19918;-68
2022/08/17 03:24:01;;;;;;;;;;;;;;;16.96;75.39;100048.69;5105652;28;20473;-68
2022/08/17 03:27:05;;;;;;;;;;;;;;;16.97;75.26;100049.50;5105756;28;19983;-68
2022/08/17 03:30:09;;;;;;;;;;;;;;;16.93;75.48;100056.88;5106735;28;19922;-69
2022/08/17 03:33:12;;;;;;;;;;;;;;;16.95;75.62;100052.31;5106391;28;19923;-69
2022/08/17 03:36:16;;;;;;;;;;;;;;;17.00;75.24;100056.34;5085813;28;19957;-68
2022/08/17 03:39:19;;;;;;;;;;;;;;;17.00;75.29;100054.53;5085979;28;19968;-68
2022/08/17 03:42:23;;;;;;;;;;;;;;;17.04;74.98;100049.81;5099260;28;19938;-71
2022/08/17 03:58:54;;;;;;;;;;;;;;;16.89;75.81;100057.28;5085966;28;20351;-68
2022/08/17 04:02:00;;;;;;;;;;;;;;;16.81;75.91;100057.91;5085957;28;19927;-68
2022/08/17 04:05:03;;;;;;;;;;;;;;;16.82;75.87;100059.59;5086318;28;19927;-68
2022/08/17 04:08:07;;;;;;;;;;;;;;;16.83;75.92;100052.53;5097420;27;19924;-69
2022/08/17 04:11:10;;;;;;;;;;;;;;;16.80;75.87;100061.53;5093252;28;19965;-68
2022/08/17 04:14:13;;;;;;;;;;;;;;;16.84;75.43;100055.00;5105690;28;20356;-70
2022/08/17 04:17:16;;;;;;;;;;;;;;;16.82;75.92;100054.34;5106581;28;20419;-68
2022/08/17 04:20:20;;;;;;;;;;;;;;;16.85;75.99;100050.59;5104761;28;20291;-70
2022/08/17 04:23:31;;;;;;;;;;;;;;;16.88;75.95;100050.31;5099842;28;19922;-67
2022/08/17 04:26:34;;;;;;;;;;;;;;;16.92;75.79;100057.84;5104317;28;19973;-67
2022/08/17 04:29:38;;;;;;;;;;;;;;;16.87;75.93;100052.13;5110665;27;19938;-67
2022/08/17 04:32:53;;;;;;;;;;;;;;;16.87;76.03;100065.31;5105490;28;19939;-67
2022/08/17 04:35:59;;;;;;;;;;;;;;;16.87;76.21;100057.41;5092777;28;20033;-67
2022/08/17 04:39:04;;;;;;;;;;;;;;;16.88;75.70;100053.81;5104375;28;19918;-67
2022/08/17 04:42:15;;;;;;;;;;;;;;;16.92;75.69;100055.19;5103403;28;19922;-67
2022/08/17 04:45:19;;;;;;;;;;;;;;;16.89;75.90;100054.63;5106208;28;19942;-67
2022/08/17 04:48:24;;;;;;;;;;;;;;;16.87;76.00;100054.75;5103628;28;20558;-68
2022/08/17 04:51:30;;;;;;;;;;;;;;;16.81;76.28;100055.28;5105139;28;19971;-67
2022/08/17 04:54:33;;;;;;;;;;;;;;;16.79;76.82;100062.50;5104943;28;19994;-67
2022/08/17 04:57:37;;;;;;;;;;;;;;;17.07;75.48;100066.25;5105541;28;20118;-67
2022/08/17 05:00:40;;;;;;;;;;;;;;;17.00;75.71;100062.44;5104040;28;20418;-67
2022/08/17 05:03:43;;;;;;;;;;;;;;;17.19;74.64;100070.44;5106816;28;19957;-65
2022/08/17 05:06:48;;;;;;;;;;;;;;;17.09;75.10;100068.75;5106484;28;19965;-64
2022/08/17 05:09:51;;;;;;;;;;;;;;;16.93;76.21;100070.06;5091669;28;19939;-64
2022/08/17 05:12:58;;;;;;;;;;;;;;;16.98;75.59;100067.06;5103492;28;19919;-64
2022/08/17 05:16:03;;;;;;;;;;;;;;;17.04;75.70;100068.31;5105573;28;20345;-64
2022/08/17 05:19:07;;;;;;;;;;;;;;;17.23;74.93;100075.47;5102511;28;19996;-64
2022/08/17 05:22:09;;;;;;;;;;;;;;;17.27;74.58;100076.91;5103461;28;19975;-64
2022/08/17 05:25:13;;;;;;;;;;;;;;;17.24;75.06;100078.00;5107549;28;19950;-64
2022/08/17 05:28:16;;;;;;;;;;;;;;;17.44;74.24;100085.00;4747536;28;10000926;-64
2022/08/17 05:31:20;;;;;;;;;;;;;;;17.44;74.14;100087.63;5106118;28;20375;-64
2022/08/17 05:34:23;;;;;;;;;;;;;;;17.34;74.29;100089.41;5105087;28;19968;-64
2022/08/17 05:37:26;;;;;;;;;;;;;;;17.47;73.76;100083.06;5098533;28;20316;-64
2022/08/17 05:40:30;;;;;;;;;;;;;;;17.50;74.01;100072.22;5101529;28;20304;-65
2022/08/17 05:43:34;;;;;;;;;;;;;;;17.55;73.89;100067.34;5088298;28;19919;-65
2022/08/17 05:46:40;;;;;;;;;;;;;;;17.57;73.52;100062.78;5088479;28;19942;-65
2022/08/17 05:49:44;;;;;;;;;;;;;;;17.49;73.22;100052.06;5101503;28;19964;-64
2022/08/17 05:52:56;;;;;;;;;;;;;;;17.68;72.57;100054.72;5102042;28;19954;-64
2022/08/17 05:56:02;;;;;;;;;;;;;;;17.98;70.88;100056.44;5088170;28;19934;-64
2022/08/17 05:59:08;;;;;;;;;;;;;;;18.23;69.97;100055.03;5087723;28;20443;-64
2022/08/17 06:02:30;;;;;;;;;;;;;;;18.03;71.44;100053.41;5111808;28;20342;-63
2022/08/17 06:05:51;;;;;;;;;;;;;;;17.93;72.36;100050.72;5104025;28;20375;-64
2022/08/17 06:09:04;;;;;;;;;;;;;;;17.98;72.12;100064.38;5106922;28;20061;-63
2022/08/17 06:12:13;;;;;;;;;;;;;;;18.00;71.89;100057.16;5109155;28;20656;-63
2022/08/17 06:15:35;;;;;;;;;;;;;;;18.05;71.84;100062.00;5107973;28;20330;-81
2022/08/17 06:18:58;;;;;;;;;;;;;;;18.43;70.50;100057.66;5110614;28;19918;-80
2022/08/17 06:22:04;;;;;;;;;;;;;;;18.54;69.36;100057.50;5111500;28;19964;-82
2022/08/17 06:25:29;;;;;;;;;;;;;;;18.70;68.74;100063.03;5098207;28;19970;-77
2022/08/17 06:28:40;;;;;;;;;;;;;;;18.88;68.33;100054.34;5109459;28;19918;-81
2022/08/17 06:31:43;;;;;;;;;;;;;;;19.22;66.93;100058.13;5097218;28;19918;-76
2022/08/17 06:34:45;;;;;;;;;;;;;;;19.03;67.76;100064.34;5097997;28;20276;-84
2022/08/17 06:37:55;;;;;;;;;;;;;;;19.16;67.41;100065.81;5110110;28;19944;-79
2022/08/17 06:41:17;;;;;;;;;;;;;;;19.37;66.76;100055.81;5115512;27;19981;-80
2022/08/17 06:44:26;;;;;;;;;;;;;;;19.52;66.64;100064.91;5103482;28;20019;-78
2022/08/17 06:47:40;;;;;;;;;;;;;;;19.46;66.89;100064.69;5089987;28;19962;-79
2022/08/17 06:50:46;;;;;;;;;;;;;;;19.51;66.32;100067.72;5089871;28;20289;-80
2022/08/17 06:53:53;;;;;;;;;;;;;;;19.61;65.29;100063.19;5104977;28;19961;-80
2022/08/17 06:57:15;;;;;;;;;;;;;;;19.62;66.38;100056.06;5110303;28;19926;-79
2022/08/17 07:00:25;;;;;;;;;;;;;;;19.73;66.30;100063.84;5105905;28;19926;-73
2022/08/17 07:03:27;;;;;;;;;;;;;;;19.92;65.37;100055.75;5104040;28;19919;-77
2022/08/17 07:06:33;;;;;;;;;;;;;;;19.84;65.71;100057.47;5110746;28;19926;-78
2022/08/17 07:09:36;;;;;;;;;;;;;;;19.78;65.46;100058.91;5097787;28;19927;-80
2022/08/17 07:12:42;;;;;;;;;;;;;;;20.01;64.20;100047.88;5109724;28;19963;-80
2022/08/17 07:15:48;;;;;;;;;;;;;;;20.12;63.48;100048.44;5110548;28;19938;-79
2022/08/17 07:18:55;;;;;;;;;;;;;;;20.13;64.54;100054.59;5109703;28;20007;-78
2022/08/17 07:22:07;;;;;;;;;;;;;;;20.12;64.55;100050.28;5109511;28;19934;-78
2022/08/17 07:25:12;;;;;;;;;;;;;;;20.07;65.50;100053.41;5108294;28;20023;-76
2022/08/17 07:28:21;;;;;;;;;;;;;;;20.09;66.00;100055.88;5107829;28;19949;-78
2022/08/17 07:31:27;;;;;;;;;;;;;;;19.87;66.79;100054.53;5109083;28;19988;-76
2022/08/17 07:34:50;;;;;;;;;;;;;;;19.86;66.97;100056.34;5089314;28;19919;-79
2022/08/17 07:38:11;;;;;;;;;;;;;;;20.19;65.77;100061.94;5089028;28;19969;-77
2022/08/17 07:41:39;;;;;;;;;;;;;;;20.30;64.57;100059.06;5097968;28;19935;-75
2022/08/17 07:44:53;;;;;;;;;;;;;;;20.28;65.79;100054.88;5101221;28;20391;-77
2022/08/17 07:51:25;;;;;;;;;;;;;;;20.13;67.84;100078.47;5108269;28;19957;-78
2022/08/17 07:54:28;;;;;;;;;;;;;;;20.28;66.04;100076.94;5108012;28;19919;-77
2022/08/17 07:57:34;;;;;;;;;;;;;;;20.27;67.08;100071.81;5108322;28;19964;-78
2022/08/17 08:00:38;;;;;;;;;;;;;;;20.25;70.21;100081.72;5109460;28;20399;-78
2022/08/17 08:03:44;;;;;;;;;;;;;;;20.46;70.81;100094.69;5109188;28;20065;-77
2022/08/17 08:06:53;;;;;;;;;;;;;;;20.58;68.85;100089.00;5107827;28;19969;-76
2022/08/17 08:10:20;;;;;;;;;;;;;;;20.58;69.39;100096.13;5107434;28;20335;-80
2022/08/17 08:13:25;;;;;;;;;;;;;;;20.63;69.49;100112.44;5107530;28;20052;-73
2022/08/17 08:16:28;;;;;;;;;;;;;;;20.71;70.46;100109.84;5108136;28;19969;-72
2022/08/17 08:19:32;;;;;;;;;;;;;;;20.80;70.80;100116.03;5108777;28;20387;-73
2022/08/17 08:22:46;;;;;;;;;;;;;;;20.83;69.67;100111.22;5109063;28;20261;-72
2022/08/17 08:26:10;;;;;;;;;;;;;;;20.81;69.03;100099.13;5096782;28;20020;-72
2022/08/17 08:29:21;;;;;;;;;;;;;;;20.78;69.74;100088.81;5108411;28;19973;-75
2022/08/17 08:32:27;;;;;;;;;;;;;;;20.95;68.35;100090.53;5108152;28;19989;-74
2022/08/17 08:35:33;;;;;;;;;;;;;;;21.16;68.01;100086.69;5108667;28;19919;-75
2022/08/17 08:38:56;;;;;;;;;;;;;;;21.00;66.50;100082.13;5107589;28;19970;-75
2022/08/17 08:42:19;;;;;;;;;;;;;;;20.98;66.52;100084.91;5109303;28;19914;-75
2022/08/17 08:45:37;;;;;;;;;;;;;;;21.03;64.70;100092.44;5108394;28;20011;-73
2022/08/17 08:48:43;;;;;;;;;;;;;;;21.12;64.39;100092.31;5108442;28;19918;-72
2022/08/17 08:51:56;;;;;;;;;;;;;;;21.16;64.06;100089.34;5107778;28;20003;-72
2022/08/17 08:55:02;;;;;;;;;;;;;;;21.34;65.09;100095.38;5108125;28;19927;-72
2022/08/17 08:58:11;;;;;;;;;;;;;;;21.62;63.21;100097.84;5107657;28;19914;-72
2022/08/17 09:01:24;;;;;;;;;;;;;;;21.80;62.35;100102.06;5108190;28;20396;-72
2022/08/17 09:04:34;;;;;;;;;;;;;;;21.69;62.23;100099.69;5108098;28;19968;-73
2022/08/17 09:07:53;;;;;;;;;;;;;;;21.70;62.13;100095.22;5107554;28;20045;-73
2022/08/17 09:11:18;;;;;;;;;;;;;;;21.61;61.95;100089.03;5108692;28;19918;-75
2022/08/17 09:14:21;;;;;;;;;;;;;;;21.66;62.76;100109.81;5107417;28;20108;-75
2022/08/17 09:17:34;;;;;;;;;;;;;;;21.77;62.06;100104.22;5087044;28;19919;-75
2022/08/17 09:20:47;;;;;;;;;;;;;;;21.77;62.43;100093.56;5089150;28;19954;-75
2022/08/17 09:24:05;;;;;;;;;;;;;;;21.92;62.08;100099.91;5108525;28;20400;-75
2022/08/17 09:27:24;;;;;;;;;;;;;;;21.96;61.96;100090.59;5116085;28;19926;-78
2022/08/17 09:30:47;;;;;;;;;;;;;;;21.88;63.54;100085.25;5102491;28;19922;-78
2022/08/17 09:33:52;;;;;;;;;;;;;;;21.88;61.71;100087.91;5116064;28;20586;-77
2022/08/17 09:37:04;;;;;;;;;;;;;;;21.87;62.98;100088.91;5101897;28;19918;-76
2022/08/17 09:40:14;;;;;;;;;;;;;;;21.95;63.12;100083.63;5114686;28;19977;-76
2022/08/17 09:43:43;;;;;;;;;;;;;;;21.97;63.04;100086.09;5120870;28;20441;-74
2022/08/17 09:46:54;;;;;;;;;;;;;;;21.75;63.60;100093.72;5131826;27;19952;-74
2022/08/17 09:50:10;;;;;;;;;;;;;;;21.90;62.60;100103.72;5110960;27;19918;-76
2022/08/17 09:53:13;;;;;;;;;;;;;;;21.87;61.56;100098.75;5111204;28;19918;-75
2022/08/17 09:56:38;;;;;;;;;;;;;;;22.12;61.58;100111.09;5111184;28;19919;-74
2022/08/17 10:00:00;;;;;;;;;;;;;;;22.18;59.79;100109.63;5111913;28;20307;-74
2022/08/17 10:03:07;;;;;;;;;;;;;;;22.00;60.54;100104.41;5110985;28;20298;-74
2022/08/17 10:06:19;;;;;;;;;;;;;;;22.06;59.82;100109.91;5110401;28;19923;-75
2022/08/17 10:09:32;;;;;;;;;;;;;;;21.98;59.55;100109.88;5111291;28;19937;-75
2022/08/17 10:12:39;;;;;;;;;;;;;;;22.09;60.01;100114.06;5109999;28;19918;-74
2022/08/17 10:15:53;;;;;;;;;;;;;;;22.21;61.14;100111.97;5110600;28;20522;-72
2022/08/17 10:18:56;;;;;;;;;;;;;;;22.26;60.43;100112.28;5110151;28;19918;-71
2022/08/17 10:29:04;;;;;;;;;;;;;;;22.25;63.07;100099.97;5110267;28;19918;-71
2022/08/17 10:32:17;;;;;;;;;;;;;;;22.25;65.02;100099.97;5110651;27;19999;-72
2022/08/17 10:35:40;;;;;;;;;;;;;;;22.32;64.70;100111.63;5099161;28;20323;-71
2022/08/17 10:38:57;;;;;;;;;;;;;;;22.11;67.66;100116.56;5110783;28;19961;-71
2022/08/17 10:42:13;;;;;;;;;;;;;;;22.14;65.57;100114.41;5110398;28;19991;-71
2022/08/17 10:45:19;;;;;;;;;;;;;;;22.11;66.30;100104.06;5111000;28;20015;-70
2022/08/17 10:48:29;;;;;;;;;;;;;;;22.13;66.84;100101.25;5109941;28;19969;-71
2022/08/17 10:51:36;;;;;;;;;;;;;;;22.30;67.18;100113.59;5110682;28;20832;-71
2022/08/17 10:55:00;;;;;;;;;;;;;;;22.48;66.12;100111.63;5110237;28;20260;-71
2022/08/17 10:58:19;;;;;;;;;;;;;;;22.49;64.89;100109.78;5109462;28;19957;-71
2022/08/17 11:01:33;;;;;;;;;;;;;;;22.49;61.96;100094.66;5109402;28;20280;-72
2022/08/17 11:04:40;;;;;;;;;;;;;;;22.44;62.49;100098.81;5110010;28;20006;-71
2022/08/17 11:07:52;;;;;;;;;;;;;;;22.64;61.25;100077.97;5109871;28;19964;-71
2022/08/17 11:11:13;;;;;;;;;;;;;;;22.79;59.23;100084.28;5110288;28;20261;-70
2022/08/17 11:14:36;;;;;;;;;;;;;;;22.80;61.87;100080.59;5110421;28;20278;-73
2022/08/17 11:18:00;;;;;;;;;;;;;;;23.12;60.41;100086.88;5089101;28;19919;-71
2022/08/17 11:21:12;;;;;;;;;;;;;;;23.49;58.36;100082.72;5089913;28;19958;-71
2022/08/17 11:24:19;;;;;;;;;;;;;;;23.76;56.89;100074.25;5089053;28;19918;-71
2022/08/17 11:27:27;;;;;;;;;;;;;;;23.79;55.62;100059.72;5089736;28;19979;-72
2022/08/17 11:30:49;;;;;;;;;;;;;;;23.76;55.80;100055.56;5098706;28;20380;-72
2022/08/17 11:34:00;;;;;;;;;;;;;;;23.86;56.09;100053.47;5090935;28;19922;-71
2022/08/17 11:37:23;;;;;;;;;;;;;;;24.17;54.47;100044.56;5091849;28;19954;-71
2022/08/17 11:40:35;;;;;;;;;;;;;;;24.25;53.23;100052.53;5093374;28;19962;-71
2022/08/17 11:43:47;;;;;;;;;;;;;;;24.25;52.45;100052.53;5092349;28;19919;-71
2022/08/17 11:53:46;;;;;;;;;;;;;;;24.48;48.50;100036.47;5092976;28;19942;-74
2022/08/17 11:56:51;;;;;;;;;;;;;;;24.55;48.98;100056.09;5093133;28;19953;-75
2022/08/17 12:00:12;;;;;;;;;;;;;;;24.59;49.14;100051.22;5092971;28;19919;-76
2022/08/17 12:03:22;;;;;;;;;;;;;;;24.80;45.92;100050.50;5093500;28;19974;-75
2022/08/17 12:06:43;;;;;;;;;;;;;;;25.00;46.00;100038.22;5093165;28;19962;-76
2022/08/17 12:09:50;;;;;;;;;;;;;;;25.11;44.53;100034.25;5093214;28;19919;-76
2022/08/17 12:12:58;;;;;;;;;;;;;;;25.21;45.10;100039.34;5093328;28;20339;-76
2022/08/17 12:16:01;;;;;;;;;;;;;;;24.92;46.29;100038.34;5080691;28;19942;-75
2022/08/17 12:19:15;;;;;;;;;;;;;;;25.09;45.87;100028.25;5093002;28;20429;-76
2022/08/17 12:22:26;;;;;;;;;;;;;;;25.21;44.92;100028.66;5080640;28;19965;-75
2022/08/17 12:25:35;;;;;;;;;;;;;;;25.20;44.70;100038.50;5092858;28;20072;-75
2022/08/17 12:28:43;;;;;;;;;;;;;;;25.18;44.71;100037.88;5092913;28;19937;-74
2022/08/17 12:31:49;;;;;;;;;;;;;;;25.47;43.80;100030.78;5080199;28;19918;-74
2022/08/17 12:34:52;;;;;;;;;;;;;;;25.90;43.54;100028.97;5093232;28;20281;-77
2022/08/17 12:38:00;;;;;;;;;;;;;;;26.67;41.58;100009.41;5092968;28;19954;-75
2022/08/17 12:44:35;;;;;;;;;;;;;;;26.63;40.94;100007.31;5092452;28;19919;-75
2022/08/17 12:47:39;;;;;;;;;;;;;;;26.48;41.77;100007.41;5092667;28;20305;-74
2022/08/17 12:50:44;;;;;;;;;;;;;;;26.55;40.45;99996.75;5091591;28;20054;-76
2022/08/17 12:53:51;;;;;;;;;;;;;;;26.65;41.02;100007.94;5092359;28;20396;-73
2022/08/17 12:56:54;;;;;;;;;;;;;;;26.98;40.23;100002.75;5092640;28;20018;-74
2022/08/17 13:00:21;;;;;;;;;;;;;;;26.79;40.68;100006.97;5092645;28;19919;-76
2022/08/17 13:03:29;;;;;;;;;;;;;;;27.09;40.54;99994.13;5092642;28;19919;-76
2022/08/17 13:06:34;;;;;;;;;;;;;;;26.98;40.79;99993.88;5092447;28;19923;-75
2022/08/17 13:09:37;;;;;;;;;;;;;;;27.41;39.75;100007.88;5092576;28;20014;-76
2022/08/17 13:12:42;;;;;;;;;;;;;;;27.39;40.12;99999.19;5080121;28;19978;-73
2022/08/17 13:15:55;;;;;;;;;;;;;;;26.86;41.30;99994.41;5080018;28;19918;-74
2022/08/17 13:19:15;;;;;;;;;;;;;;;26.62;42.04;100003.81;5092401;28;19970;-75
2022/08/17 13:22:21;;;;;;;;;;;;;;;27.38;40.57;100008.28;5096380;28;20004;-77
2022/08/17 13:25:25;;;;;;;;;;;;;;;28.09;38.78;100001.59;5096368;28;19969;-74
2022/08/17 13:28:30;;;;;;;;;;;;;;;27.83;39.54;100007.78;5096833;28;19919;-78
2022/08/17 13:31:35;;;;;;;;;;;;;;;27.76;39.76;100015.78;5096922;28;20600;-77
2022/08/17 13:34:42;;;;;;;;;;;;;;;27.29;40.42;100006.81;5096181;28;19946;-75
2022/08/17 13:38:00;;;;;;;;;;;;;;;30.35;35.52;99998.72;5095948;28;19958;-71
2022/08/17 13:41:05;;;;;;;;;;;;;;;31.73;32.26;99979.13;5096204;28;20046;-72
2022/08/17 13:44:27;;;;;;;;;;;;;;;30.50;34.04;99974.06;5083608;28;19919;-71
2022/08/17 13:47:32;;;;;;;;;;;;;;;29.16;36.44;99962.63;5094920;28;19922;-72
2022/08/17 13:50:36;;;;;;;;;;;;;;;35.30;27.04;99961.38;5095831;28;20002;-72
2022/08/17 13:53:39;;;;;;;;;;;;;;;39.96;21.39;99949.56;5095562;28;19934;-76
2022/08/17 13:56:56;;;;;;;;;;;;;;;37.82;22.67;99954.19;5095969;28;19935;-76
2022/08/17 14:00:15;;;;;;;;;;;;;;;36.66;24.30;99940.84;5095948;28;20445;-77
2022/08/17 14:03:19;;;;;;;;;;;;;;;37.97;22.45;99940.50;5095737;28;19981;-77
2022/08/17 14:10:19;;;;;;;;;;;;;;;35.90;24.96;99934.94;5095918;28;19965;-77
2022/08/17 14:13:23;;;;;;;;;;;;;;;34.03;27.22;99945.91;5096038;28;19919;-75
2022/08/17 14:16:26;;;;;;;;;;;;;;;33.06;29.12;99941.53;5095484;28;19926;-75
2022/08/17 14:19:30;;;;;;;;;;;;;;;38.86;21.98;99932.59;5095647;28;20388;-75
2022/08/17 14:22:35;;;;;;;;;;;;;;;42.10;18.25;99915.50;5094766;28;19919;-75
2022/08/17 14:25:40;;;;;;;;;;;;;;;43.63;16.57;99903.81;5095185;28;19922;-77
2022/08/17 14:28:44;;;;;;;;;;;;;;;39.10;20.81;99908.13;5095354;28;19922;-76
2022/08/17 14:31:57;;;;;;;;;;;;;;;30.93;31.88;99916.50;5093787;28;19923;-75
2022/08/17 14:35:10;;;;;;;;;;;;;;;28.17;37.13;99937.69;5095443;28;19923;-73
2022/08/17 14:38:20;;;;;;;;;;;;;;;28.54;36.24;99924.59;5095396;28;20053;-75
2022/08/17 14:41:27;;;;;;;;;;;;;;;28.58;37.03;99930.38;5095069;28;19965;-74
2022/08/17 14:44:31;;;;;;;;;;;;;;;28.63;36.92;99934.09;5094853;28;20457;-74
2022/08/17 14:47:35;;;;;;;;;;;;;;;29.61;35.45;99932.97;5094966;28;19923;-74
2022/08/17 14:50:39;;;;;;;;;;;;;;;29.11;36.37;99922.09;5094778;28;19973;-75
2022/08/17 14:53:44;;;;;;;;;;;;;;;27.52;39.84;99921.34;5095247;28;19919;-73
2022/08/17 14:56:47;;;;;;;;;;;;;;;27.94;38.39;99922.00;5082213;28;20042;-78
2022/08/17 14:59:52;;;;;;;;;;;;;;;27.86;38.71;99919.53;5082711;28;19965;-78
2022/08/17 15:02:57;;;;;;;;;;;;;;;27.86;39.11;99911.47;5094345;28;19920;-77
2022/08/17 15:06:01;;;;;;;;;;;;;;;28.02;38.99;99910.22;5093317;28;19923;-77
2022/08/17 15:09:04;;;;;;;;;;;;;;;27.96;39.31;99917.25;5094499;28;19958;-76
2022/08/17 15:12:07;;;;;;;;;;;;;;;27.59;39.94;99913.31;5094391;28;19962;-73
2022/08/17 15:15:12;;;;;;;;;;;;;;;27.87;39.24;99915.81;5094350;28;19964;-74
2022/08/17 15:18:15;;;;;;;;;;;;;;;28.59;38.40;99913.19;5094258;28;20391;-75
2022/08/17 15:21:19;;;;;;;;;;;;;;;28.39;38.68;99911.38;5094697;28;19977;-78
2022/08/17 15:24:22;;;;;;;;;;;;;;;28.81;37.94;99911.03;5093778;28;19918;-74
2022/08/17 15:27:25;;;;;;;;;;;;;;;28.94;37.95;99905.56;5093815;28;19954;-75
2022/08/17 15:30:28;;;;;;;;;;;;;;;28.26;39.27;99908.72;5093692;28;19918;-75
2022/08/17 15:33:33;;;;;;;;;;;;;;;27.63;40.25;99911.03;5093882;28;19919;-75
2022/08/17 15:36:36;;;;;;;;;;;;;;;27.30;41.14;99909.16;5094033;28;19990;-75
2022/08/17 15:39:39;;;;;;;;;;;;;;;27.22;41.53;99903.97;5093857;28;20321;-75
2022/08/17 15:42:42;;;;;;;;;;;;;;;27.24;41.16;99905.41;5093367;28;19919;-75
2022/08/17 15:45:45;;;;;;;;;;;;;;;27.16;41.34;99918.22;5093253;28;19923;-74
2022/08/17 15:48:50;;;;;;;;;;;;;;;27.70;40.30;99914.56;5093888;28;19989;-75
2022/08/17 15:51:53;;;;;;;;;;;;;;;27.31;40.32;99921.53;5093511;28;20384;-74
2022/08/17 15:54:58;;;;;;;;;;;;;;;27.62;38.67;99922.81;5093524;28;20423;-74
2022/08/17 15:58:01;;;;;;;;;;;;;;;27.83;38.24;99911.91;5093649;28;20372;-74
2022/08/17 16:01:04;;;;;;;;;;;;;;;27.77;38.78;99900.13;5093356;28;19931;-74
2022/08/17 16:04:09;;;;;;;;;;;;;;;28.28;38.36;99898.59;5093571;28;20007;-74
2022/08/17 16:07:15;;;;;;;;;;;;;;;28.75;37.68;99901.97;5093269;28;19977;-75
2022/08/17 16:10:19;;;;;;;;;;;;;;;28.77;37.60;99894.50;5093571;28;19919;-74
2022/08/17 16:13:22;;;;;;;;;;;;;;;29.00;37.19;99898.50;5093276;28;19919;-74
2022/08/17 16:16:27;;;;;;;;;;;;;;;29.39;36.00;99897.47;5080586;28;19977;-73
2022/08/17 16:19:32;;;;;;;;;;;;;;;29.08;37.06;99898.31;5093181;28;20305;-74
2022/08/17 16:22:36;;;;;;;;;;;;;;;28.68;37.84;99901.97;5093456;28;20379;-74
2022/08/17 16:25:39;;;;;;;;;;;;;;;28.83;38.00;99900.88;5111820;28;19968;-68
2022/08/17 16:28:42;;;;;;;;;;;;;;;29.26;35.76;99900.25;5112932;28;20057;-68
2022/08/17 16:31:46;;;;;;;;;;;;;;;29.33;36.31;99895.66;5112882;28;19921;-69
2022/08/17 16:34:50;;;;;;;;;;;;;;;29.09;36.45;99891.88;5113002;28;19922;-68
2022/08/17 16:37:55;;;;;;;;;;;;;;;29.02;36.62;99897.28;5113345;28;19923;-68
2022/08/17 16:40:58;;;;;;;;;;;;;;;28.82;36.39;99897.38;5111691;28;19972;-69
2022/08/17 16:44:02;;;;;;;;;;;;;;;28.60;36.53;99910.31;5112933;28;19919;-69